Time;durP1;ratioP1;P1;durP2;ratioP2;P2;SDS_P1;SDS_P2;PMS_P1;PMS_P2;Temp;Humidity;BMP_temperature;BMP_pressure;BME280_temperature;BME280_humidity;BME280_pressure;Samples;Min_cycle;Max_cycle;Signal;HPM_P1;HPM_P2
2023/08/21 00:02:22;;;;;;;6.57;2.25;;;;;;;22.96;57.76;102181.69;4996181;28;20105;-64
2023/08/21 00:04:47;;;;;;;6.05;2.05;;;;;;;22.96;57.49;102176.88;5004170;28;20034;-62
2023/08/21 00:07:12;;;;;;;6.68;2.33;;;;;;;22.92;57.91;102177.78;5011835;28;20448;-62
2023/08/21 00:09:38;;;;;;;7.07;2.30;;;;;;;22.92;58.01;102192.78;5011698;28;20164;-62
2023/08/21 00:12:04;;;;;;;7.25;2.45;;;;;;;22.87;57.98;102192.81;5010881;28;20058;-62
2023/08/21 00:14:29;;;;;;;5.30;2.15;;;;;;;22.85;57.76;102191.44;5011083;28;20037;-63
2023/08/21 00:16:54;;;;;;;5.28;2.25;;;;;;;22.90;57.90;102175.19;5007961;28;20029;-63
2023/08/21 00:19:20;;;;;;;8.30;2.35;;;;;;;22.92;58.15;102160.78;5007550;28;20049;-63
2023/08/21 00:21:45;;;;;;;7.13;2.50;;;;;;;22.89;58.11;102172.69;5006633;28;20037;-63
2023/08/21 00:24:11;;;;;;;6.70;1.92;;;;;;;22.89;58.06;102169.84;5012097;28;20041;-63
2023/08/21 00:26:36;;;;;;;7.80;2.45;;;;;;;22.86;58.27;102161.97;5011643;28;20123;-63
2023/08/21 00:29:01;;;;;;;7.18;2.22;;;;;;;22.82;58.37;102161.72;5009842;28;20058;-64
2023/08/21 00:31:27;;;;;;;5.15;2.28;;;;;;;22.79;58.13;102166.03;5012310;28;20038;-63
2023/08/21 00:33:53;;;;;;;5.97;1.90;;;;;;;22.76;58.59;102163.81;5010460;28;20153;-63
2023/08/21 00:36:19;;;;;;;11.10;2.38;;;;;;;22.66;58.83;102157.44;5007328;28;20108;-63
2023/08/21 00:38:45;;;;;;;6.88;2.60;;;;;;;22.66;58.97;102163.09;5010222;28;20067;-63
2023/08/21 00:41:10;;;;;;;6.75;2.58;;;;;;;22.59;59.25;102166.28;5011714;28;20088;-64
2023/08/21 00:43:35;;;;;;;9.20;3.03;;;;;;;22.60;58.96;102164.28;5009518;28;20029;-63
2023/08/21 00:46:01;;;;;;;7.18;2.70;;;;;;;22.61;59.35;102163.16;5009406;28;20017;-63
2023/08/21 00:48:26;;;;;;;5.80;2.78;;;;;;;22.58;59.25;102170.25;5011985;28;20145;-63
2023/08/21 00:50:52;;;;;;;5.40;2.60;;;;;;;22.53;59.35;102167.50;5012007;28;20034;-63
2023/08/21 00:53:18;;;;;;;8.55;2.67;;;;;;;22.50;59.50;102174.59;5011181;28;20022;-63
2023/08/21 00:55:43;;;;;;;8.65;2.92;;;;;;;22.51;59.53;102181.09;4999376;28;20061;-63
2023/08/21 00:58:11;;;;;;;7.10;2.42;;;;;;;22.53;59.72;102176.84;5010650;28;20061;-63
2023/08/21 01:00:37;;;;;;;7.90;2.80;;;;;;;22.49;60.10;102174.91;5011236;28;20030;-63
2023/08/21 01:03:03;;;;;;;6.22;2.85;;;;;;;22.47;60.17;102174.38;5010425;28;20869;-64
2023/08/21 01:05:28;;;;;;;7.22;2.83;;;;;;;22.51;59.93;102184.78;5011822;28;20026;-63
2023/08/21 01:08:00;;;;;;;5.80;2.83;;;;;;;22.43;59.85;102187.44;5007614;28;20030;-64
2023/08/21 01:10:39;;;;;;;5.07;2.30;;;;;;;22.53;59.66;102187.31;4993544;28;20023;-63
2023/08/21 01:14:00;;;;;;;7.82;3.15;;;;;;;22.61;59.24;102174.50;5007945;28;20112;-63
2023/08/21 01:16:27;;;;;;;6.85;2.75;;;;;;;22.48;59.96;102167.59;4928706;29;20487;-64
2023/08/21 01:18:54;;;;;;;8.13;3.30;;;;;;;22.44;60.49;102153.19;4993345;28;20041;-64
2023/08/21 01:21:19;;;;;;;6.20;2.72;;;;;;;22.35;60.14;102151.31;5010907;28;20449;-63
2023/08/21 01:23:45;;;;;;;8.05;3.03;;;;;;;22.39;60.38;102146.75;5010566;28;20120;-63
2023/08/21 01:26:10;;;;;;;6.00;2.72;;;;;;;22.35;60.44;102154.97;5009037;28;20461;-62
2023/08/21 01:28:36;;;;;;;5.07;2.63;;;;;;;22.35;60.58;102138.00;4991701;28;20113;-63
2023/08/21 01:31:09;;;;;;;6.05;2.78;;;;;;;22.37;60.43;102140.56;5002249;28;20049;-64
2023/08/21 01:33:42;;;;;;;11.48;2.70;;;;;;;22.37;60.10;102144.22;5010251;28;20229;-64
2023/08/21 01:36:07;;;;;;;6.22;2.70;;;;;;;22.28;60.29;102140.34;5009934;28;20040;-64
2023/08/21 01:38:33;;;;;;;8.88;3.00;;;;;;;22.26;60.16;102142.66;5008123;28;20113;-64
2023/08/21 01:40:58;;;;;;;6.60;2.83;;;;;;;22.21;60.87;102149.22;5010200;28;20033;-64
2023/08/21 01:43:24;;;;;;;8.27;2.80;;;;;;;22.16;60.79;102140.78;5007058;28;20033;-64
2023/08/21 01:45:49;;;;;;;8.20;3.15;;;;;;;22.06;61.07;102147.38;5008392;28;20145;-64
2023/08/21 01:48:15;;;;;;;5.65;3.00;;;;;;;22.09;61.21;102147.94;5008674;28;20084;-64
2023/08/21 01:50:40;;;;;;;6.60;3.17;;;;;;;22.03;61.07;102138.66;5010916;28;20036;-64
2023/08/21 01:53:05;;;;;;;8.95;3.50;;;;;;;22.01;61.35;102150.25;5011816;28;20414;-64
2023/08/21 01:55:31;;;;;;;10.00;3.47;;;;;;;21.99;61.21;102149.72;5007556;28;20065;-65
2023/08/21 01:57:56;;;;;;;7.20;3.63;;;;;;;22.00;61.29;102150.53;5011702;28;20351;-64
2023/08/21 02:00:21;;;;;;;6.22;3.15;;;;;;;22.03;61.14;102161.25;5013364;28;20052;-64
2023/08/21 02:02:47;;;;;;;7.95;3.40;;;;;;;22.04;60.97;102166.59;5008577;28;20026;-64
2023/08/21 02:05:12;;;;;;;7.95;3.75;;;;;;;22.02;61.11;102168.91;5011785;28;20057;-64
2023/08/21 02:07:37;;;;;;;6.55;3.25;;;;;;;21.98;61.02;102167.81;5012983;28;20076;-63
2023/08/21 02:10:03;;;;;;;8.02;3.42;;;;;;;21.94;61.49;102166.72;5012502;28;20048;-64
2023/08/21 02:12:28;;;;;;;8.93;4.22;;;;;;;21.94;61.30;102163.91;5010663;28;20409;-64
2023/08/21 02:14:54;;;;;;;6.60;3.35;;;;;;;21.80;62.21;102169.38;5007949;28;20052;-63
2023/08/21 02:17:19;;;;;;;7.28;2.85;;;;;;;21.91;61.93;102163.66;5013992;28;20030;-63
2023/08/21 02:19:44;;;;;;;5.18;3.78;;;;;;;21.80;61.85;102169.38;5011560;28;20470;-63
2023/08/21 02:22:10;;;;;;;9.15;3.28;;;;;;;21.73;62.25;102163.28;5014613;28;20125;-63
2023/08/21 02:24:35;;;;;;;7.32;3.30;;;;;;;21.75;62.09;102158.16;5011532;28;20034;-64
2023/08/21 02:27:00;;;;;;;6.88;3.35;;;;;;;21.75;62.16;102172.28;5012814;28;20120;-63
2023/08/21 02:29:26;;;;;;;6.72;3.30;;;;;;;21.77;62.22;102170.00;5006138;28;20053;-63
2023/08/21 02:31:51;;;;;;;6.20;3.17;;;;;;;21.77;62.25;102158.72;4993841;28;20026;-63
2023/08/21 02:34:16;;;;;;;8.55;3.33;;;;;;;21.77;61.90;102158.72;4999807;28;20057;-63
2023/08/21 02:36:41;;;;;;;6.43;3.00;;;;;;;21.79;62.16;102164.06;5014314;28;20388;-64
2023/08/21 02:39:07;;;;;;;8.00;3.53;;;;;;;21.72;62.12;102166.38;5010946;28;20085;-64
2023/08/21 02:41:32;;;;;;;6.85;3.00;;;;;;;21.71;62.29;102153.38;5010769;28;20072;-63
2023/08/21 02:43:57;;;;;;;6.07;3.13;;;;;;;21.67;62.48;102155.13;5013105;28;20065;-63
2023/08/21 02:46:23;;;;;;;8.05;3.50;;;;;;;21.68;62.23;102156.81;5006531;28;20076;-63
2023/08/21 02:48:48;;;;;;;8.70;3.50;;;;;;;21.69;62.57;102164.13;5013982;28;20393;-63
2023/08/21 02:51:13;;;;;;;6.10;3.22;;;;;;;21.64;62.56;102162.19;5011638;28;20367;-63
2023/08/21 02:53:39;;;;;;;9.77;3.60;;;;;;;21.68;62.48;102160.47;5012436;28;20057;-63
2023/08/21 02:56:04;;;;;;;7.78;3.53;;;;;;;21.67;62.23;102155.97;5012891;28;20359;-63
2023/08/21 02:58:29;;;;;;;5.20;3.20;;;;;;;21.71;62.19;102159.88;5011770;28;20026;-63
2023/08/21 03:00:54;;;;;;;7.65;3.35;;;;;;;21.67;62.01;102155.97;5010729;28;20029;-63
2023/08/21 03:03:20;;;;;;;7.10;3.03;;;;;;;21.74;61.91;102159.28;5004492;28;20799;-63
2023/08/21 03:05:45;;;;;;;5.97;2.50;;;;;;;21.75;62.09;102160.97;5011930;28;20053;-63
2023/08/21 03:08:10;;;;;;;5.53;2.92;;;;;;;21.71;61.48;102162.72;5012372;28;20104;-63
2023/08/21 03:10:36;;;;;;;8.65;3.13;;;;;;;21.70;62.01;102160.19;5012006;28;20100;-63
2023/08/21 03:13:02;;;;;;;8.05;3.28;;;;;;;21.61;62.25;102159.97;5011931;28;20025;-63
2023/08/21 03:15:28;;;;;;;8.75;3.45;;;;;;;21.61;62.19;102159.97;5010525;28;20026;-63
2023/08/21 03:17:54;;;;;;;8.57;3.28;;;;;;;21.54;62.36;102160.31;5012621;28;20140;-63
2023/08/21 03:20:19;;;;;;;8.25;3.17;;;;;;;21.55;62.21;102164.81;5008203;28;20448;-63
2023/08/21 03:22:44;;;;;;;8.00;3.38;;;;;;;21.50;62.57;102167.72;5011438;28;20034;-63
2023/08/21 03:25:10;;;;;;;6.70;3.20;;;;;;;21.51;62.21;102160.06;5010766;28;20390;-63
2023/08/21 03:27:39;;;;;;;11.38;3.50;;;;;;;21.54;62.35;102162.31;5011439;28;20108;-63
2023/08/21 03:30:06;;;;;;;6.82;2.83;;;;;;;21.52;62.26;102162.59;5012926;28;20548;-63
2023/08/21 03:32:32;;;;;;;8.35;2.97;;;;;;;21.55;62.38;102166.81;5011144;28;20542;-63
2023/08/21 03:34:57;;;;;;;8.80;3.30;;;;;;;21.51;62.42;102171.38;5011441;28;20055;-63
2023/08/21 03:37:22;;;;;;;7.28;2.83;;;;;;;21.57;62.18;102173.00;4996692;28;20108;-63
2023/08/21 03:39:48;;;;;;;10.32;3.90;;;;;;;21.51;62.41;102168.53;4994205;28;20061;-64
2023/08/21 03:42:13;;;;;;;8.98;3.05;;;;;;;21.47;62.31;102165.47;5011202;28;20034;-64
2023/08/21 03:44:39;;;;;;;8.25;3.33;;;;;;;21.38;62.53;102161.59;5012070;28;20034;-64
2023/08/21 03:47:04;;;;;;;8.63;3.33;;;;;;;21.42;62.49;102161.81;5010565;28;20465;-64
2023/08/21 03:49:30;;;;;;;7.32;3.20;;;;;;;21.44;62.52;102160.41;5011724;28;20089;-64
2023/08/21 03:51:55;;;;;;;8.52;2.75;;;;;;;21.46;62.42;102157.28;5010707;28;20057;-63
2023/08/21 03:54:20;;;;;;;9.52;3.33;;;;;;;21.45;62.06;102162.06;5003378;28;20030;-64
2023/08/21 03:56:45;;;;;;;7.47;3.60;;;;;;;21.32;62.39;102163.59;4997648;28;20057;-63
2023/08/21 03:59:11;;;;;;;8.32;3.50;;;;;;;21.29;62.40;102164.16;5010250;28;20041;-63
2023/08/21 04:01:36;;;;;;;10.25;3.78;;;;;;;21.12;63.06;102160.91;5011511;28;20089;-64
2023/08/21 04:04:02;;;;;;;8.50;3.40;;;;;;;21.02;63.15;102149.66;5009263;28;20389;-63
2023/08/21 04:06:27;;;;;;;5.75;3.50;;;;;;;21.11;62.94;102150.75;5000558;28;20061;-63
2023/08/21 04:08:52;;;;;;;9.05;3.42;;;;;;;21.12;63.06;102155.25;4992473;28;20034;-63
2023/08/21 04:11:18;;;;;;;9.40;3.53;;;;;;;21.12;62.73;102157.22;4992551;28;20030;-64
2023/08/21 04:13:43;;;;;;;6.40;2.90;;;;;;;21.15;62.49;102160.31;5009731;28;20053;-64
2023/08/21 04:16:08;;;;;;;7.80;3.60;;;;;;;21.15;62.79;102156.66;5009819;28;21711;-63
2023/08/21 04:18:36;;;;;;;7.18;3.60;;;;;;;21.10;62.67;102163.16;5011440;28;20042;-63
2023/08/21 04:21:02;;;;;;;8.35;3.40;;;;;;;21.12;62.81;102168.53;5010924;28;20041;-65
2023/08/21 04:23:27;;;;;;;6.30;3.20;;;;;;;21.14;62.53;102172.72;5010082;28;20054;-63
2023/08/21 04:25:52;;;;;;;9.00;3.75;;;;;;;21.01;63.09;102179.88;5011190;28;20018;-64
2023/08/21 04:28:17;;;;;;;8.15;3.35;;;;;;;21.05;63.10;102189.44;5004399;28;20469;-63
2023/08/21 04:30:43;;;;;;;7.45;3.25;;;;;;;21.12;63.05;102179.81;5009400;28;20466;-64
2023/08/21 04:33:08;;;;;;;6.95;3.63;;;;;;;21.13;63.20;102182.34;5010851;28;20044;-64
2023/08/21 04:35:38;;;;;;;7.63;3.65;;;;;;;21.02;63.68;102187.19;5010716;28;20044;-64
2023/08/21 04:38:04;;;;;;;9.10;3.80;;;;;;;21.05;63.57;102183.78;5011677;28;20028;-64
2023/08/21 04:40:29;;;;;;;8.32;3.72;;;;;;;21.10;63.55;102188.56;5011167;28;20041;-64
2023/08/21 04:42:54;;;;;;;5.18;3.05;;;;;;;21.10;63.59;102182.91;5009742;28;20555;-64
2023/08/21 04:45:20;;;;;;;9.70;3.92;;;;;;;21.06;63.71;102184.63;5005052;28;20026;-64
2023/08/21 04:47:45;;;;;;;9.13;3.63;;;;;;;21.08;63.93;102186.03;5010192;28;20532;-63
2023/08/21 04:50:11;;;;;;;9.52;2.85;;;;;;;21.18;63.44;102192.75;5011224;28;20041;-63
2023/08/21 04:52:37;;;;;;;6.65;3.42;;;;;;;21.13;63.74;102195.63;5010694;28;20053;-63
2023/08/21 04:55:02;;;;;;;5.00;2.88;;;;;;;21.20;63.48;102196.97;5005909;28;20046;-63
2023/08/21 04:57:28;;;;;;;9.50;3.88;;;;;;;21.14;63.68;102195.31;4991892;28;20023;-64
2023/08/21 04:59:53;;;;;;;8.70;3.80;;;;;;;21.13;63.75;102202.09;4990994;28;20053;-64
2023/08/21 05:02:18;;;;;;;8.90;3.10;;;;;;;21.14;63.74;102198.13;5000042;28;20028;-63
2023/08/21 05:04:44;;;;;;;6.78;3.80;;;;;;;21.12;63.89;102202.41;5005873;28;20076;-64
2023/08/21 05:07:09;;;;;;;7.30;3.00;;;;;;;21.18;63.64;102199.25;5008271;28;20033;-64
2023/08/21 05:09:34;;;;;;;6.22;3.38;;;;;;;21.17;63.75;102200.38;5011360;28;20045;-63
2023/08/21 05:12:00;;;;;;;6.32;3.13;;;;;;;21.18;63.92;102204.91;5007775;28;20129;-63
2023/08/21 05:14:25;;;;;;;9.30;3.80;;;;;;;21.13;63.92;102201.25;5010680;28;20026;-64
2023/08/21 05:16:51;;;;;;;5.18;3.00;;;;;;;21.20;63.50;102204.59;5006293;28;20038;-63
2023/08/21 05:19:16;;;;;;;10.35;3.42;;;;;;;21.18;63.70;102206.88;5008487;28;20470;-64
2023/08/21 05:21:42;;;;;;;5.93;3.10;;;;;;;21.18;63.68;102207.72;5008434;28;20061;-64
2023/08/21 05:24:07;;;;;;;5.60;2.85;;;;;;;21.21;63.75;102207.13;5010574;28;20040;-64
2023/08/21 05:26:33;;;;;;;9.98;3.92;;;;;;;21.19;63.81;102215.06;5010313;28;20064;-63
2023/08/21 05:28:58;;;;;;;9.57;4.07;;;;;;;21.13;64.05;102216.22;5012593;28;20042;-63
2023/08/21 05:31:23;;;;;;;8.23;2.97;;;;;;;21.22;63.86;102214.50;5013283;28;20029;-64
2023/08/21 05:33:49;;;;;;;5.70;3.00;;;;;;;21.21;63.90;102217.59;5009222;28;20033;-63
2023/08/21 05:36:14;;;;;;;8.48;3.35;;;;;;;21.25;63.99;102218.69;5007407;28;20120;-64
2023/08/21 05:38:39;;;;;;;7.78;3.47;;;;;;;21.24;63.99;102222.66;5007816;28;20412;-63
2023/08/21 05:41:05;;;;;;;6.13;3.00;;;;;;;21.27;64.16;102214.44;5010461;28;20498;-64
2023/08/21 05:43:30;;;;;;;8.02;3.05;;;;;;;21.30;64.33;102224.31;5013306;28;20034;-65
2023/08/21 05:45:56;;;;;;;9.70;3.13;;;;;;;21.33;64.79;102218.94;5012098;28;20835;-65
2023/08/21 05:48:21;;;;;;;8.52;3.22;;;;;;;21.36;64.55;102219.50;5008593;28;20099;-65
2023/08/21 05:50:53;;;;;;;4.93;3.10;;;;;;;21.36;64.66;102225.16;5007589;28;20026;-65
2023/08/21 05:53:19;;;;;;;6.18;2.75;;;;;;;21.38;64.34;102231.34;5007089;28;20056;-64
2023/08/21 05:55:44;;;;;;;6.25;3.47;;;;;;;21.34;64.43;102228.28;5008479;28;20030;-65
2023/08/21 05:58:10;;;;;;;9.40;3.88;;;;;;;21.35;64.61;102220.66;5007985;28;20042;-65
2023/08/21 06:00:38;;;;;;;10.85;4.13;;;;;;;21.40;64.87;102220.59;5002253;28;20076;-66
2023/08/21 06:03:04;;;;;;;8.57;3.78;;;;;;;21.39;64.48;102227.41;5007389;28;20026;-65
2023/08/21 06:05:29;;;;;;;7.97;3.80;;;;;;;21.39;64.85;102224.56;4995862;28;20041;-66
2023/08/21 06:07:54;;;;;;;9.13;3.45;;;;;;;21.42;65.01;102233.31;5012528;28;20029;-67
2023/08/21 06:10:20;;;;;;;6.03;3.83;;;;;;;21.44;65.22;102231.00;5011895;28;20042;-65
2023/08/21 06:12:45;;;;;;;7.75;3.72;;;;;;;21.46;65.04;102236.38;5005531;28;20129;-65
2023/08/21 06:15:11;;;;;;;8.20;3.65;;;;;;;21.49;65.42;102232.97;5003983;28;20408;-65
2023/08/21 06:17:37;;;;;;;7.55;3.50;;;;;;;21.51;65.00;102233.53;5006494;28;20038;-64
2023/08/21 06:20:05;;;;;;;6.78;3.78;;;;;;;21.57;64.90;102232.31;5011210;28;20040;-66
2023/08/21 06:22:32;;;;;;;5.88;3.75;;;;;;;21.64;65.05;102248.97;5007737;28;20489;-66
2023/08/21 06:24:57;;;;;;;7.78;3.80;;;;;;;21.67;64.91;102243.56;5002405;28;20052;-71
2023/08/21 06:27:22;;;;;;;6.70;3.67;;;;;;;21.73;64.99;102238.69;5006737;28;20473;-67
2023/08/21 06:29:48;;;;;;;8.05;4.03;;;;;;;21.79;64.94;102241.19;5000736;28;20101;-67
2023/08/21 06:32:13;;;;;;;10.90;3.88;;;;;;;21.84;64.58;102250.78;4997198;28;20109;-67
2023/08/21 06:34:38;;;;;;;9.25;5.28;;;;;;;21.80;64.27;102247.69;4993973;28;20049;-67
2023/08/21 06:37:03;;;;;;;9.73;3.85;;;;;;;21.91;64.14;102243.66;4993585;28;20137;-67
2023/08/21 06:39:29;;;;;;;5.95;3.22;;;;;;;21.96;64.07;102245.56;4992182;28;20031;-67
2023/08/21 06:41:54;;;;;;;8.13;3.53;;;;;;;21.97;63.92;102250.13;5004371;28;20104;-67
2023/08/21 06:44:20;;;;;;;8.05;3.88;;;;;;;22.01;64.20;102251.22;5013012;28;20112;-66
2023/08/21 06:46:45;;;;;;;7.55;3.47;;;;;;;22.03;63.83;102238.44;5012337;28;20030;-66
2023/08/21 06:49:10;;;;;;;9.30;5.18;;;;;;;21.94;63.19;102245.03;5011348;28;20030;-66
2023/08/21 06:51:36;;;;;;;7.07;3.67;;;;;;;22.05;64.01;102246.66;5011785;28;20029;-66
2023/08/21 06:54:01;;;;;;;7.00;3.63;;;;;;;22.11;63.29;102247.44;5010213;28;20038;-66
2023/08/21 06:56:26;;;;;;;9.15;3.80;;;;;;;22.12;63.72;102247.13;5012283;28;20029;-67
2023/08/21 06:58:52;;;;;;;6.93;4.13;;;;;;;22.15;63.19;102246.56;5008315;28;20458;-66
2023/08/21 07:01:17;;;;;;;9.98;3.83;;;;;;;22.20;63.28;102248.50;5000247;28;20029;-67
2023/08/21 07:03:43;;;;;;;10.30;3.75;;;;;;;22.24;63.41;102244.78;5012057;28;20096;-66
2023/08/21 07:06:08;;;;;;;7.25;3.45;;;;;;;22.29;63.39;102247.56;5012264;28;20119;-65
2023/08/21 07:08:34;;;;;;;8.00;3.67;;;;;;;22.34;62.82;102243.81;5013064;28;20109;-66
2023/08/21 07:11:02;;;;;;;6.80;3.28;;;;;;;22.35;62.81;102244.66;5011267;28;20469;-66
2023/08/21 07:13:27;;;;;;;9.60;3.55;;;;;;;22.34;62.64;102251.47;5011283;28;20029;-65
2023/08/21 07:15:54;;;;;;;9.38;3.78;;;;;;;22.34;62.77;102254.31;5008577;28;20028;-66
2023/08/21 07:18:20;;;;;;;8.30;3.90;;;;;;;22.31;62.83;102252.91;4994480;28;20080;-66
2023/08/21 07:20:45;;;;;;;9.43;3.88;;;;;;;22.38;62.87;102259.06;5011695;28;20088;-66
2023/08/21 07:23:10;;;;;;;7.15;3.60;;;;;;;22.45;62.42;102250.22;5010080;28;20041;-65
2023/08/21 07:25:36;;;;;;;5.85;3.33;;;;;;;22.54;62.63;102251.25;4999865;28;20033;-66
2023/08/21 07:28:02;;;;;;;7.65;4.68;;;;;;;22.58;62.27;102249.50;5007939;28;20030;-66
2023/08/21 07:30:27;;;;;;;8.48;3.95;;;;;;;22.68;62.28;102251.38;5004810;28;20418;-66
2023/08/21 07:32:53;;;;;;;10.75;4.75;;;;;;;22.71;61.87;102247.94;5011322;28;20033;-66
2023/08/21 07:35:19;;;;;;;9.13;3.05;;;;;;;22.81;61.66;102253.47;5011026;28;20053;-66
2023/08/21 07:37:45;;;;;;;7.15;4.40;;;;;;;22.88;61.33;102255.94;5011722;28;20034;-65
2023/08/21 07:40:11;;;;;;;8.10;3.38;;;;;;;22.98;61.25;102255.81;5008725;28;20061;-66
2023/08/21 07:42:36;;;;;;;7.85;4.13;;;;;;;23.02;60.68;102254.06;5009699;28;20022;-66
2023/08/21 07:45:02;;;;;;;7.50;3.30;;;;;;;23.12;61.20;102256.78;5001726;28;20030;-66
2023/08/21 07:47:27;;;;;;;10.02;6.45;;;;;;;23.15;60.46;102255.34;5009834;28;20037;-66
2023/08/21 07:49:53;;;;;;;6.85;3.97;;;;;;;23.27;60.16;102256.56;5007976;28;20033;-65
2023/08/21 07:52:19;;;;;;;8.02;4.30;;;;;;;23.31;59.19;102256.81;5012115;28;20029;-66
2023/08/21 07:54:44;;;;;;;6.25;3.67;;;;;;;23.36;58.88;102251.06;5011560;28;20054;-66
2023/08/21 07:57:09;;;;;;;9.23;5.07;;;;;;;23.35;58.04;102259.88;5008570;28;20030;-66
2023/08/21 07:59:35;;;;;;;7.43;4.03;;;;;;;23.30;57.17;102257.09;5009174;28;20110;-65
2023/08/21 08:02:02;;;;;;;6.72;3.13;;;;;;;23.32;58.08;102266.13;5003057;28;20084;-66
2023/08/21 08:04:28;;;;;;;6.32;3.40;;;;;;;23.33;58.12;102264.97;5012174;28;20049;-67
2023/08/21 08:06:53;;;;;;;6.90;3.88;;;;;;;23.41;57.68;102265.13;5011580;28;20556;-70
2023/08/21 08:09:19;;;;;;;10.48;3.60;;;;;;;23.46;57.75;102262.25;5008485;28;20038;-69
2023/08/21 08:11:44;;;;;;;7.93;3.30;;;;;;;23.59;57.10;102266.28;5009226;28;20072;-69
2023/08/21 08:14:09;;;;;;;10.20;3.90;;;;;;;23.64;56.78;102269.03;5008492;28;20247;-69
2023/08/21 08:16:34;;;;;;;10.05;3.33;;;;;;;23.74;56.11;102268.91;5011325;28;20029;-69
2023/08/21 08:19:00;;;;;;;7.78;3.45;;;;;;;23.87;55.16;102274.94;5003506;28;20034;-69
2023/08/21 08:21:25;;;;;;;6.68;2.30;;;;;;;23.97;56.24;102271.94;5006669;28;20049;-66
2023/08/21 08:23:50;;;;;;;8.23;3.17;;;;;;;24.03;54.26;102273.53;5005926;28;20121;-67
2023/08/21 08:26:16;;;;;;;8.45;2.85;;;;;;;23.96;52.24;102275.91;5008925;28;20041;-67
2023/08/21 08:28:42;;;;;;;4.78;2.03;;;;;;;24.09;55.05;102268.59;5000390;28;20034;-68
2023/08/21 08:31:15;;;;;;;5.93;2.60;;;;;;;24.09;54.95;102269.47;5009626;28;20030;-66
2023/08/21 08:33:40;;;;;;;8.73;3.38;;;;;;;24.04;54.37;102269.53;5005249;28;20565;-67
2023/08/21 08:36:05;;;;;;;5.13;2.78;;;;;;;24.10;55.20;102264.63;5000405;28;20149;-69
2023/08/21 08:38:33;;;;;;;6.72;2.45;;;;;;;24.17;55.11;102267.88;5009582;28;20124;-67
2023/08/21 08:41:01;;;;;;;6.57;2.83;;;;;;;24.25;54.85;102273.72;5011309;28;20026;-65
2023/08/21 08:43:27;;;;;;;9.15;2.88;;;;;;;24.39;54.74;102272.91;5005265;28;20044;-65
2023/08/21 08:45:56;;;;;;;10.07;3.60;;;;;;;24.46;54.54;102273.34;5006116;28;20030;-63
2023/08/21 08:48:22;;;;;;;10.32;3.40;;;;;;;24.54;54.16;102268.94;4995522;28;20035;-63
2023/08/21 08:50:48;;;;;;;7.38;3.40;;;;;;;24.61;54.13;102267.38;4990509;28;20367;-63
2023/08/21 08:53:14;;;;;;;7.35;3.40;;;;;;;24.56;52.98;102281.66;4992735;28;20030;-63
2023/08/21 08:55:39;;;;;;;6.60;3.05;;;;;;;24.50;52.88;102271.56;5006132;28;20029;-62
2023/08/21 08:58:05;;;;;;;7.90;2.53;;;;;;;24.51;52.46;102276.09;5010541;28;20045;-63
2023/08/21 09:00:31;;;;;;;5.60;1.73;;;;;;;24.47;51.71;102275.88;5010775;28;20045;-63
2023/08/21 09:02:57;;;;;;;6.63;2.00;;;;;;;24.43;51.77;102279.66;5010165;28;20026;-63
2023/08/21 09:05:23;;;;;;;8.00;2.25;;;;;;;24.41;52.22;102276.31;5012264;28;20025;-63
2023/08/21 09:08:02;;;;;;;10.75;2.60;;;;;;;24.34;52.36;102271.00;5012553;28;20070;-63
2023/08/21 09:10:28;;;;;;;6.00;2.13;;;;;;;24.24;52.48;102274.84;5011190;28;20030;-62
2023/08/21 09:12:53;;;;;;;7.32;1.98;;;;;;;24.32;52.75;102269.59;5011656;28;20040;-62
2023/08/21 09:15:18;;;;;;;8.18;1.95;;;;;;;24.35;51.30;102264.16;5013906;28;20052;-62
2023/08/21 09:17:53;;;;;;;7.13;1.73;;;;;;;24.37;51.38;102269.53;5014736;28;20077;-63
2023/08/21 09:20:18;;;;;;;7.22;1.67;;;;;;;24.46;51.03;102264.84;5011902;28;20034;-63
2023/08/21 09:22:53;;;;;;;7.43;1.40;;;;;;;24.40;51.04;102271.75;5013587;28;20034;-62
2023/08/21 09:25:18;;;;;;;6.93;1.55;;;;;;;24.34;50.33;102267.31;5014741;28;20024;-63
2023/08/21 09:27:44;;;;;;;5.53;1.60;;;;;;;24.34;50.10;102270.16;5013100;28;20025;-63
2023/08/21 09:30:14;;;;;;;6.45;1.60;;;;;;;24.34;50.45;102264.47;5000520;28;20050;-63
2023/08/21 09:32:56;;;;;;;5.43;2.03;;;;;;;24.42;51.73;102264.63;5013360;28;20026;-63
2023/08/21 09:35:23;;;;;;;5.93;1.85;;;;;;;24.50;51.36;102263.06;5014398;28;20029;-63
2023/08/21 09:37:48;;;;;;;5.78;1.80;;;;;;;24.55;50.03;102257.28;5012890;28;20034;-63
2023/08/21 09:40:15;;;;;;;8.98;2.30;;;;;;;24.59;50.41;102257.50;5011013;28;20128;-63
2023/08/21 09:42:41;;;;;;;10.75;2.42;;;;;;;24.61;50.31;102261.72;5014782;28;20033;-63
2023/08/21 09:45:07;;;;;;;5.65;1.80;;;;;;;24.71;50.56;102261.47;5010958;28;20458;-63
2023/08/21 09:47:33;;;;;;;7.53;2.42;;;;;;;24.74;50.72;102251.50;5006372;28;20144;-63
2023/08/21 09:49:59;;;;;;;6.38;2.03;;;;;;;24.84;50.70;102261.81;5013250;28;20033;-62
2023/08/21 09:52:26;;;;;;;6.18;1.90;;;;;;;24.84;50.80;102261.81;5014473;28;20045;-62
2023/08/21 09:54:53;;;;;;;7.32;2.00;;;;;;;24.90;51.37;102254.88;5011061;28;20042;-63
2023/08/21 09:57:22;;;;;;;5.65;1.48;;;;;;;24.92;50.07;102246.88;5006237;28;20038;-63
2023/08/21 09:59:51;;;;;;;4.82;1.65;;;;;;;24.98;50.68;102254.94;5008419;28;20033;-63
2023/08/21 10:02:17;;;;;;;8.30;1.80;;;;;;;25.04;49.41;102255.69;4993810;28;20077;-63
2023/08/21 10:04:45;;;;;;;7.38;1.50;;;;;;;25.06;49.70;102253.38;5003137;28;20041;-63
2023/08/21 10:07:12;;;;;;;6.28;1.88;;;;;;;25.09;49.94;102255.59;5012581;28;20041;-63
2023/08/21 10:09:40;;;;;;;7.35;1.60;;;;;;;25.15;49.86;102250.63;5012802;28;20080;-63
2023/08/21 10:12:08;;;;;;;5.07;1.33;;;;;;;25.16;49.77;102247.50;5013977;28;20473;-64
2023/08/21 10:14:33;;;;;;;4.55;1.83;;;;;;;25.25;50.16;102243.91;5005188;28;20037;-65
2023/08/21 10:16:59;;;;;;;5.15;1.45;;;;;;;25.34;50.24;102241.97;4999198;28;20109;-65
2023/08/21 10:19:30;;;;;;;5.28;1.42;;;;;;;25.37;49.87;102238.50;4999215;28;20057;-65
2023/08/21 10:21:58;;;;;;;5.97;1.70;;;;;;;25.43;49.23;102234.38;5012300;28;20116;-65
2023/08/21 10:24:30;;;;;;;5.97;1.70;;;;;;;25.42;49.18;102233.53;5013332;28;20985;-65
2023/08/21 10:26:59;;;;;;;7.68;1.45;;;;;;;25.45;50.18;102234.88;5013658;28;20536;-65
2023/08/21 10:29:24;;;;;;;8.93;1.73;;;;;;;25.48;50.41;102230.56;5013075;28;20053;-65
2023/08/21 10:31:59;;;;;;;5.28;1.50;;;;;;;25.53;49.59;102242.66;5012174;28;20041;-65
2023/08/21 10:34:34;;;;;;;4.15;1.10;;;;;;;25.58;48.34;102234.00;5013925;28;20037;-63
2023/08/21 10:36:59;;;;;;;5.28;1.83;;;;;;;25.63;47.64;102235.88;5005161;28;20032;-63
2023/08/21 10:39:26;;;;;;;5.22;1.25;;;;;;;25.62;48.67;102235.06;5012619;28;20038;-63
2023/08/21 10:42:00;;;;;;;5.78;1.48;;;;;;;25.62;48.26;102234.19;5012337;28;20030;-63
2023/08/21 10:44:35;;;;;;;3.55;1.35;;;;;;;25.67;47.71;102229.22;5011610;28;20026;-62
2023/08/21 10:47:20;;;;;;;4.25;1.38;;;;;;;25.73;47.77;102229.09;5010279;28;20033;-63
2023/08/21 10:49:47;;;;;;;5.45;1.23;;;;;;;25.79;47.27;102236.38;5013572;28;20420;-63
2023/08/21 10:52:14;;;;;;;6.85;1.70;;;;;;;25.82;48.14;102230.88;5010901;28;20113;-62
2023/08/21 10:54:49;;;;;;;6.93;1.63;;;;;;;25.82;47.32;102235.72;5007066;28;20025;-63
2023/08/21 10:57:15;;;;;;;6.80;1.60;;;;;;;25.83;47.56;102238.25;5005848;28;20042;-63
2023/08/21 10:59:50;;;;;;;6.55;1.58;;;;;;;25.84;48.54;102242.75;5011840;28;20512;-62
2023/08/21 11:02:16;;;;;;;5.65;1.48;;;;;;;25.90;48.05;102238.63;5011582;28;20385;-63
2023/08/21 11:04:41;;;;;;;7.70;1.52;;;;;;;25.91;47.69;102234.63;5010929;28;20091;-62
2023/08/21 11:07:07;;;;;;;5.47;1.90;;;;;;;25.93;47.43;102234.28;5010556;28;20528;-62
2023/08/21 11:09:36;;;;;;;6.07;1.60;;;;;;;25.97;46.61;102238.16;5007075;28;20054;-62
2023/08/21 11:12:06;;;;;;;6.03;1.38;;;;;;;26.02;47.48;102228.69;4993986;28;20041;-63
2023/08/21 11:14:32;;;;;;;5.53;1.52;;;;;;;26.09;47.28;102229.88;4996858;28;20105;-63
2023/08/21 11:16:59;;;;;;;4.95;1.50;;;;;;;26.18;47.37;102225.09;5009199;28;20129;-62
2023/08/21 11:19:24;;;;;;;7.13;1.95;;;;;;;26.17;46.46;102219.69;5012532;28;20038;-62
2023/08/21 11:21:53;;;;;;;8.63;1.80;;;;;;;26.16;46.70;102224.56;5011218;28;20056;-63